sensor_id;sensor_type;location;lat;lon;timestamp;pressure;altitude;pressure_sealevel;temperature;humidity
74975;BME280;68459;50.836;19.138;2023-05-10T00:02:52;98886.56;;;8.30;45.72
74975;BME280;68459;50.836;19.138;2023-05-10T00:05:56;98878.06;;;8.26;45.26
74975;BME280;68459;50.836;19.138;2023-05-10T00:09:01;98881.19;;;8.23;45.48
74975;BME280;68459;50.836;19.138;2023-05-10T00:12:05;98870.84;;;8.20;46.16
74975;BME280;68459;50.836;19.138;2023-05-10T00:15:09;98873.31;;;8.15;45.98
74975;BME280;68459;50.836;19.138;2023-05-10T00:18:13;98874.75;;;8.11;45.81
74975;BME280;68459;50.836;19.138;2023-05-10T00:21:17;98872.03;;;8.04;45.81
74975;BME280;68459;50.836;19.138;2023-05-10T00:24:22;98869.94;;;8.00;46.57
74975;BME280;68459;50.836;19.138;2023-05-10T00:27:27;98865.59;;;7.92;45.79
74975;BME280;68459;50.836;19.138;2023-05-10T00:30:30;98871.97;;;7.84;46.88
74975;BME280;68459;50.836;19.138;2023-05-10T00:33:36;98874.03;;;7.82;46.82
74975;BME280;68459;50.836;19.138;2023-05-10T00:36:40;98872.78;;;7.78;46.43
74975;BME280;68459;50.836;19.138;2023-05-10T00:39:45;98866.13;;;7.74;47.41
74975;BME280;68459;50.836;19.138;2023-05-10T00:42:48;98860.13;;;7.66;46.70
74975;BME280;68459;50.836;19.138;2023-05-10T00:45:52;98862.75;;;7.59;46.99
74975;BME280;68459;50.836;19.138;2023-05-10T00:48:57;98863.19;;;7.56;47.56
74975;BME280;68459;50.836;19.138;2023-05-10T00:52:01;98859.44;;;7.50;47.46
74975;BME280;68459;50.836;19.138;2023-05-10T00:55:07;98854.03;;;7.44;47.51
74975;BME280;68459;50.836;19.138;2023-05-10T00:58:15;98862.69;;;7.39;47.37
74975;BME280;68459;50.836;19.138;2023-05-10T01:01:19;98857.06;;;7.34;47.54
74975;BME280;68459;50.836;19.138;2023-05-10T01:04:23;98859.34;;;7.31;48.06
74975;BME280;68459;50.836;19.138;2023-05-10T01:07:28;98856.78;;;7.23;48.40
74975;BME280;68459;50.836;19.138;2023-05-10T01:10:32;98851.22;;;7.18;47.71
74975;BME280;68459;50.836;19.138;2023-05-10T01:13:38;98852.22;;;7.17;48.66
74975;BME280;68459;50.836;19.138;2023-05-10T01:16:45;98849.94;;;7.13;48.57
74975;BME280;68459;50.836;19.138;2023-05-10T01:19:52;98855.06;;;7.08;48.57
74975;BME280;68459;50.836;19.138;2023-05-10T01:23:16;98855.84;;;7.02;50.72
74975;BME280;68459;50.836;19.138;2023-05-10T01:27:07;98846.28;;;6.93;49.77
74975;BME280;68459;50.836;19.138;2023-05-10T01:30:40;98840.44;;;6.83;49.39
74975;BME280;68459;50.836;19.138;2023-05-10T01:34:09;98846.97;;;6.74;48.88
74975;BME280;68459;50.836;19.138;2023-05-10T01:37:22;98851.44;;;6.67;48.78
74975;BME280;68459;50.836;19.138;2023-05-10T01:40:35;98848.53;;;6.62;48.96
74975;BME280;68459;50.836;19.138;2023-05-10T01:43:53;98853.63;;;6.57;49.32
74975;BME280;68459;50.836;19.138;2023-05-10T01:47:07;98849.91;;;6.51;49.71
74975;BME280;68459;50.836;19.138;2023-05-10T01:50:18;98841.78;;;6.44;49.55
74975;BME280;68459;50.836;19.138;2023-05-10T01:53:35;98842.56;;;6.38;49.46
74975;BME280;68459;50.836;19.138;2023-05-10T01:56:43;98838.59;;;6.34;50.36
74975;BME280;68459;50.836;19.138;2023-05-10T01:59:51;98835.47;;;6.31;49.73
74975;BME280;68459;50.836;19.138;2023-05-10T02:02:57;98834.19;;;6.27;50.15
74975;BME280;68459;50.836;19.138;2023-05-10T02:06:05;98829.44;;;6.22;50.57
74975;BME280;68459;50.836;19.138;2023-05-10T02:09:11;98837.84;;;6.19;49.58
74975;BME280;68459;50.836;19.138;2023-05-10T02:12:18;98827.50;;;6.16;50.72
74975;BME280;68459;50.836;19.138;2023-05-10T02:15:24;98815.72;;;6.11;50.15
74975;BME280;68459;50.836;19.138;2023-05-10T02:18:31;98823.50;;;6.05;51.24
74975;BME280;68459;50.836;19.138;2023-05-10T02:21:39;98818.69;;;6.01;51.03
74975;BME280;68459;50.836;19.138;2023-05-10T02:24:45;98823.44;;;5.99;50.25
74975;BME280;68459;50.836;19.138;2023-05-10T02:27:53;98816.78;;;5.95;51.60
74975;BME280;68459;50.836;19.138;2023-05-10T02:30:59;98819.19;;;5.90;51.23
74975;BME280;68459;50.836;19.138;2023-05-10T02:34:06;98818.94;;;5.85;51.69
74975;BME280;68459;50.836;19.138;2023-05-10T02:37:13;98823.19;;;5.79;50.91
74975;BME280;68459;50.836;19.138;2023-05-10T02:40:21;98815.69;;;5.74;51.14
74975;BME280;68459;50.836;19.138;2023-05-10T02:43:32;98815.47;;;5.69;51.44
74975;BME280;68459;50.836;19.138;2023-05-10T02:46:38;98814.16;;;5.65;51.72
74975;BME280;68459;50.836;19.138;2023-05-10T02:49:42;98812.03;;;5.61;52.33
74975;BME280;68459;50.836;19.138;2023-05-10T02:52:50;98807.72;;;5.60;51.62
74975;BME280;68459;50.836;19.138;2023-05-10T02:56:00;98808.94;;;5.57;51.49
74975;BME280;68459;50.836;19.138;2023-05-10T02:59:09;98810.13;;;5.55;51.81
74975;BME280;68459;50.836;19.138;2023-05-10T03:02:14;98811.53;;;5.51;52.00
74975;BME280;68459;50.836;19.138;2023-05-10T03:05:18;98812.53;;;5.50;51.55
74975;BME280;68459;50.836;19.138;2023-05-10T03:08:24;98810.69;;;5.50;52.61
74975;BME280;68459;50.836;19.138;2023-05-10T03:11:35;98816.22;;;5.49;52.49
74975;BME280;68459;50.836;19.138;2023-05-10T03:14:59;98807.38;;;5.48;53.18
74975;BME280;68459;50.836;19.138;2023-05-10T03:18:09;98808.19;;;5.49;52.67
74975;BME280;68459;50.836;19.138;2023-05-10T03:21:17;98813.38;;;5.50;52.65
74975;BME280;68459;50.836;19.138;2023-05-10T03:24:27;98810.03;;;5.48;53.64
74975;BME280;68459;50.836;19.138;2023-05-10T03:27:35;98807.38;;;5.48;52.71
74975;BME280;68459;50.836;19.138;2023-05-10T03:30:42;98803.69;;;5.49;53.00
74975;BME280;68459;50.836;19.138;2023-05-10T03:33:48;98805.34;;;5.50;52.50
74975;BME280;68459;50.836;19.138;2023-05-10T03:36:57;98806.63;;;5.54;52.83
74975;BME280;68459;50.836;19.138;2023-05-10T03:40:09;98811.63;;;5.57;53.29
74975;BME280;68459;50.836;19.138;2023-05-10T03:43:16;98808.53;;;5.60;52.22
74975;BME280;68459;50.836;19.138;2023-05-10T03:46:19;98803.47;;;5.65;53.27
74975;BME280;68459;50.836;19.138;2023-05-10T03:49:23;98807.44;;;5.69;52.63
74975;BME280;68459;50.836;19.138;2023-05-10T03:52:27;98808.06;;;5.71;53.11
74975;BME280;68459;50.836;19.138;2023-05-10T03:55:32;98804.16;;;5.74;53.37
74975;BME280;68459;50.836;19.138;2023-05-10T03:58:38;98804.44;;;5.79;53.15
74975;BME280;68459;50.836;19.138;2023-05-10T04:01:42;98802.88;;;5.85;53.58
74975;BME280;68459;50.836;19.138;2023-05-10T04:04:45;98796.78;;;5.91;53.17
74975;BME280;68459;50.836;19.138;2023-05-10T04:07:50;98797.03;;;5.96;53.51
74975;BME280;68459;50.836;19.138;2023-05-10T04:10:55;98799.41;;;6.05;52.78
74975;BME280;68459;50.836;19.138;2023-05-10T04:14:08;98790.78;;;6.10;53.26
74975;BME280;68459;50.836;19.138;2023-05-10T04:17:12;98803.41;;;6.16;52.45
74975;BME280;68459;50.836;19.138;2023-05-10T04:20:16;98801.63;;;6.23;52.66
74975;BME280;68459;50.836;19.138;2023-05-10T04:23:20;98808.25;;;6.27;52.16
74975;BME280;68459;50.836;19.138;2023-05-10T04:26:25;98800.91;;;6.36;52.59
74975;BME280;68459;50.836;19.138;2023-05-10T04:29:29;98809.00;;;6.42;52.64
74975;BME280;68459;50.836;19.138;2023-05-10T04:32:33;98796.50;;;6.50;52.83
74975;BME280;68459;50.836;19.138;2023-05-10T04:35:37;98799.84;;;6.58;52.79
74975;BME280;68459;50.836;19.138;2023-05-10T04:38:41;98800.94;;;6.64;52.99
74975;BME280;68459;50.836;19.138;2023-05-10T04:41:47;98806.13;;;6.72;51.92
74975;BME280;68459;50.836;19.138;2023-05-10T04:44:50;98799.78;;;6.79;52.99
74975;BME280;68459;50.836;19.138;2023-05-10T04:47:54;98795.31;;;6.87;52.77
74975;BME280;68459;50.836;19.138;2023-05-10T04:50:58;98792.47;;;6.95;51.77
74975;BME280;68459;50.836;19.138;2023-05-10T04:54:02;98792.13;;;7.04;52.26
74975;BME280;68459;50.836;19.138;2023-05-10T04:57:09;98791.97;;;7.12;52.64
74975;BME280;68459;50.836;19.138;2023-05-10T05:00:13;98792.81;;;7.20;52.25
74975;BME280;68459;50.836;19.138;2023-05-10T05:03:18;98797.81;;;7.29;52.02
74975;BME280;68459;50.836;19.138;2023-05-10T05:06:22;98788.78;;;7.37;51.99
74975;BME280;68459;50.836;19.138;2023-05-10T05:09:26;98792.13;;;7.45;51.31
74975;BME280;68459;50.836;19.138;2023-05-10T05:12:31;98793.78;;;7.53;51.19
74975;BME280;68459;50.836;19.138;2023-05-10T05:15:35;98790.91;;;7.61;51.34
74975;BME280;68459;50.836;19.138;2023-05-10T05:18:39;98785.59;;;7.68;51.81
74975;BME280;68459;50.836;19.138;2023-05-10T05:21:42;98802.97;;;7.78;51.42
74975;BME280;68459;50.836;19.138;2023-05-10T05:24:46;98792.66;;;7.88;51.64
74975;BME280;68459;50.836;19.138;2023-05-10T05:27:51;98797.84;;;7.97;51.93
74975;BME280;68459;50.836;19.138;2023-05-10T05:30:55;98795.59;;;8.07;51.01
74975;BME280;68459;50.836;19.138;2023-05-10T05:33:58;98791.06;;;8.14;51.39
74975;BME280;68459;50.836;19.138;2023-05-10T05:37:02;98791.50;;;8.24;51.80
74975;BME280;68459;50.836;19.138;2023-05-10T05:40:06;98789.25;;;8.34;50.96
74975;BME280;68459;50.836;19.138;2023-05-10T05:43:12;98789.03;;;8.42;51.04
74975;BME280;68459;50.836;19.138;2023-05-10T05:46:15;98786.56;;;8.54;50.79
74975;BME280;68459;50.836;19.138;2023-05-10T05:49:19;98787.41;;;8.61;50.82
74975;BME280;68459;50.836;19.138;2023-05-10T05:52:23;98788.00;;;8.70;51.10
74975;BME280;68459;50.836;19.138;2023-05-10T05:55:26;98792.75;;;8.81;50.10
74975;BME280;68459;50.836;19.138;2023-05-10T05:58:32;98787.34;;;8.94;50.18
74975;BME280;68459;50.836;19.138;2023-05-10T06:01:36;98790.44;;;9.04;50.15
74975;BME280;68459;50.836;19.138;2023-05-10T06:04:40;98794.97;;;9.10;50.40
74975;BME280;68459;50.836;19.138;2023-05-10T06:07:45;98792.88;;;9.19;50.35
74975;BME280;68459;50.836;19.138;2023-05-10T06:10:49;98795.56;;;9.25;50.23
74975;BME280;68459;50.836;19.138;2023-05-10T06:13:54;98802.34;;;9.35;50.29
74975;BME280;68459;50.836;19.138;2023-05-10T06:16:58;98799.22;;;9.44;49.78
74975;BME280;68459;50.836;19.138;2023-05-10T06:20:02;98795.03;;;9.55;49.54
74975;BME280;68459;50.836;19.138;2023-05-10T06:23:07;98803.88;;;9.69;49.93
74975;BME280;68459;50.836;19.138;2023-05-10T06:26:10;98797.19;;;9.78;50.12
74975;BME280;68459;50.836;19.138;2023-05-10T06:29:17;98806.47;;;9.88;49.99
74975;BME280;68459;50.836;19.138;2023-05-10T06:32:20;98812.59;;;10.02;49.65
74975;BME280;68459;50.836;19.138;2023-05-10T06:35:24;98807.19;;;10.09;50.06
74975;BME280;68459;50.836;19.138;2023-05-10T06:38:28;98796.34;;;10.15;50.39
74975;BME280;68459;50.836;19.138;2023-05-10T06:41:32;98794.09;;;10.19;49.71
74975;BME280;68459;50.836;19.138;2023-05-10T06:44:37;98791.59;;;10.24;49.58
74975;BME280;68459;50.836;19.138;2023-05-10T06:47:41;98795.88;;;10.31;49.64
74975;BME280;68459;50.836;19.138;2023-05-10T06:50:44;98791.03;;;10.40;49.86
74975;BME280;68459;50.836;19.138;2023-05-10T06:53:48;98794.72;;;10.46;50.29
74975;BME280;68459;50.836;19.138;2023-05-10T06:56:52;98798.44;;;10.51;49.10
74975;BME280;68459;50.836;19.138;2023-05-10T06:59:57;98796.88;;;10.62;50.17
74975;BME280;68459;50.836;19.138;2023-05-10T07:03:01;98786.63;;;10.70;50.41
74975;BME280;68459;50.836;19.138;2023-05-10T07:06:05;98787.34;;;10.84;49.40
74975;BME280;68459;50.836;19.138;2023-05-10T07:09:19;98781.66;;;10.92;50.19
74975;BME280;68459;50.836;19.138;2023-05-10T07:12:23;98780.72;;;11.05;49.21
74975;BME280;68459;50.836;19.138;2023-05-10T07:15:28;98787.25;;;11.16;49.94
74975;BME280;68459;50.836;19.138;2023-05-10T07:18:32;98787.97;;;11.23;49.21
74975;BME280;68459;50.836;19.138;2023-05-10T07:21:36;98784.53;;;11.34;49.57
74975;BME280;68459;50.836;19.138;2023-05-10T07:24:40;98784.03;;;11.43;49.79
74975;BME280;68459;50.836;19.138;2023-05-10T07:27:43;98780.56;;;11.55;49.18
74975;BME280;68459;50.836;19.138;2023-05-10T07:30:48;98780.84;;;11.65;49.78
74975;BME280;68459;50.836;19.138;2023-05-10T07:33:52;98778.41;;;11.75;48.61
74975;BME280;68459;50.836;19.138;2023-05-10T07:36:58;98781.41;;;11.85;49.17
74975;BME280;68459;50.836;19.138;2023-05-10T07:40:02;98783.72;;;12.00;48.12
74975;BME280;68459;50.836;19.138;2023-05-10T07:43:06;98777.06;;;12.14;48.76
74975;BME280;68459;50.836;19.138;2023-05-10T07:46:11;98778.50;;;12.28;49.04
74975;BME280;68459;50.836;19.138;2023-05-10T07:49:15;98767.38;;;12.36;47.73
74975;BME280;68459;50.836;19.138;2023-05-10T07:52:18;98777.16;;;12.49;47.85
74975;BME280;68459;50.836;19.138;2023-05-10T07:55:24;98770.94;;;12.60;48.34
74975;BME280;68459;50.836;19.138;2023-05-10T07:58:28;98769.41;;;12.64;47.75
74975;BME280;68459;50.836;19.138;2023-05-10T08:01:34;98767.41;;;12.71;48.28
74975;BME280;68459;50.836;19.138;2023-05-10T08:04:37;98761.75;;;12.84;47.63
74975;BME280;68459;50.836;19.138;2023-05-10T08:07:41;98760.09;;;12.95;47.73
74975;BME280;68459;50.836;19.138;2023-05-10T08:10:45;98759.63;;;13.10;47.03
74975;BME280;68459;50.836;19.138;2023-05-10T08:13:50;98759.53;;;13.28;46.93
74975;BME280;68459;50.836;19.138;2023-05-10T08:16:56;98767.63;;;13.40;46.96
74975;BME280;68459;50.836;19.138;2023-05-10T08:19:59;98767.00;;;13.49;46.59
74975;BME280;68459;50.836;19.138;2023-05-10T08:23:03;98765.81;;;13.57;46.93
74975;BME280;68459;50.836;19.138;2023-05-10T08:26:07;98767.06;;;13.66;46.36
74975;BME280;68459;50.836;19.138;2023-05-10T08:29:10;98762.44;;;13.78;46.43
74975;BME280;68459;50.836;19.138;2023-05-10T08:32:15;98768.88;;;13.89;46.05
74975;BME280;68459;50.836;19.138;2023-05-10T08:35:19;98773.75;;;14.04;45.64
74975;BME280;68459;50.836;19.138;2023-05-10T08:38:22;98766.88;;;14.13;45.37
74975;BME280;68459;50.836;19.138;2023-05-10T08:41:26;98762.47;;;14.23;45.23
74975;BME280;68459;50.836;19.138;2023-05-10T08:44:32;98757.22;;;14.34;45.16
74975;BME280;68459;50.836;19.138;2023-05-10T08:47:39;98770.25;;;14.48;45.04
74975;BME280;68459;50.836;19.138;2023-05-10T08:50:44;98765.22;;;14.57;44.56
74975;BME280;68459;50.836;19.138;2023-05-10T08:53:50;98757.25;;;14.67;44.68
74975;BME280;68459;50.836;19.138;2023-05-10T08:56:54;98772.72;;;14.83;44.02
74975;BME280;68459;50.836;19.138;2023-05-10T09:00:00;98767.41;;;14.93;42.97
74975;BME280;68459;50.836;19.138;2023-05-10T09:03:05;98767.41;;;14.93;42.72
74975;BME280;68459;50.836;19.138;2023-05-10T09:06:11;98763.22;;;15.03;42.94
74975;BME280;68459;50.836;19.138;2023-05-10T09:09:17;98772.16;;;15.20;42.76
74975;BME280;68459;50.836;19.138;2023-05-10T09:12:20;98766.09;;;15.34;42.27
74975;BME280;68459;50.836;19.138;2023-05-10T09:15:24;98755.34;;;15.45;42.42
74975;BME280;68459;50.836;19.138;2023-05-10T09:18:30;98757.41;;;15.54;41.90
74975;BME280;68459;50.836;19.138;2023-05-10T09:21:35;98759.50;;;15.69;41.85
74975;BME280;68459;50.836;19.138;2023-05-10T09:24:40;98750.75;;;15.89;41.96
74975;BME280;68459;50.836;19.138;2023-05-10T09:27:48;98745.97;;;16.01;41.46
74975;BME280;68459;50.836;19.138;2023-05-10T09:30:53;98759.66;;;16.06;40.87
74975;BME280;68459;50.836;19.138;2023-05-10T09:33:59;98753.78;;;16.19;40.95
74975;BME280;68459;50.836;19.138;2023-05-10T09:37:02;98757.16;;;16.31;40.88
74975;BME280;68459;50.836;19.138;2023-05-10T09:40:08;98756.50;;;16.51;40.75
74975;BME280;68459;50.836;19.138;2023-05-10T09:43:15;98759.69;;;16.70;40.84
74975;BME280;68459;50.836;19.138;2023-05-10T09:46:19;98761.41;;;16.76;40.23
74975;BME280;68459;50.836;19.138;2023-05-10T09:49:24;98756.47;;;16.78;40.45
74975;BME280;68459;50.836;19.138;2023-05-10T09:52:27;98760.97;;;16.94;39.75
74975;BME280;68459;50.836;19.138;2023-05-10T09:55:39;98763.56;;;17.16;39.73
74975;BME280;68459;50.836;19.138;2023-05-10T09:58:44;98757.66;;;17.29;39.42
74975;BME280;68459;50.836;19.138;2023-05-10T10:01:51;98751.50;;;17.54;39.33
74975;BME280;68459;50.836;19.138;2023-05-10T10:04:57;98751.94;;;17.93;38.96
74975;BME280;68459;50.836;19.138;2023-05-10T10:08:04;98739.69;;;18.16;38.58
74975;BME280;68459;50.836;19.138;2023-05-10T10:11:08;98752.25;;;18.17;38.45
74975;BME280;68459;50.836;19.138;2023-05-10T10:14:12;98756.59;;;18.13;38.29
74975;BME280;68459;50.836;19.138;2023-05-10T10:17:17;98749.47;;;18.02;38.04
74975;BME280;68459;50.836;19.138;2023-05-10T10:20:25;98755.16;;;17.85;38.36
74975;BME280;68459;50.836;19.138;2023-05-10T10:23:29;98747.28;;;17.94;38.55
74975;BME280;68459;50.836;19.138;2023-05-10T10:26:33;98746.00;;;18.37;39.18
74975;BME280;68459;50.836;19.138;2023-05-10T10:29:47;98735.09;;;18.72;37.80
74975;BME280;68459;50.836;19.138;2023-05-10T10:33:13;98745.16;;;18.51;37.59
74975;BME280;68459;50.836;19.138;2023-05-10T10:36:42;98744.03;;;18.12;37.75
74975;BME280;68459;50.836;19.138;2023-05-10T10:39:48;98753.31;;;17.96;38.40
74975;BME280;68459;50.836;19.138;2023-05-10T10:42:52;98745.16;;;18.16;37.99
74975;BME280;68459;50.836;19.138;2023-05-10T10:46:10;98743.78;;;18.08;38.51
74975;BME280;68459;50.836;19.138;2023-05-10T10:49:16;98741.03;;;18.03;38.64
74975;BME280;68459;50.836;19.138;2023-05-10T10:52:25;98728.19;;;18.04;38.46
74975;BME280;68459;50.836;19.138;2023-05-10T10:55:32;98733.44;;;18.21;38.43
74975;BME280;68459;50.836;19.138;2023-05-10T10:58:36;98732.63;;;18.50;38.24
74975;BME280;68459;50.836;19.138;2023-05-10T11:01:41;98728.81;;;18.67;37.90
74975;BME280;68459;50.836;19.138;2023-05-10T11:04:46;98730.75;;;18.61;37.88
74975;BME280;68459;50.836;19.138;2023-05-10T11:07:55;98729.06;;;18.55;38.15
74975;BME280;68459;50.836;19.138;2023-05-10T11:11:05;98726.03;;;18.51;37.91
74975;BME280;68459;50.836;19.138;2023-05-10T11:14:10;98719.50;;;18.83;38.05
74975;BME280;68459;50.836;19.138;2023-05-10T11:17:23;98718.28;;;19.35;37.76
74975;BME280;68459;50.836;19.138;2023-05-10T11:20:28;98719.28;;;19.69;36.97
74975;BME280;68459;50.836;19.138;2023-05-10T11:23:50;98719.22;;;19.74;36.83
74975;BME280;68459;50.836;19.138;2023-05-10T11:26:58;98717.38;;;19.65;36.74
74975;BME280;68459;50.836;19.138;2023-05-10T11:30:05;98715.53;;;19.50;36.87
74975;BME280;68459;50.836;19.138;2023-05-10T11:33:11;98712.78;;;19.50;37.22
74975;BME280;68459;50.836;19.138;2023-05-10T11:36:20;98721.59;;;19.96;37.24
74975;BME280;68459;50.836;19.138;2023-05-10T11:39:27;98711.84;;;20.58;36.88
74975;BME280;68459;50.836;19.138;2023-05-10T11:42:32;98713.03;;;21.05;36.33
74975;BME280;68459;50.836;19.138;2023-05-10T11:45:36;98715.47;;;21.06;35.65
74975;BME280;68459;50.836;19.138;2023-05-10T11:48:41;98709.25;;;21.01;36.19
74975;BME280;68459;50.836;19.138;2023-05-10T11:51:46;98710.53;;;21.08;35.61
74975;BME280;68459;50.836;19.138;2023-05-10T11:54:53;98702.53;;;21.12;35.55
74975;BME280;68459;50.836;19.138;2023-05-10T11:58:01;98715.41;;;21.16;34.92
74975;BME280;68459;50.836;19.138;2023-05-10T12:01:07;98714.16;;;20.75;35.30
74975;BME280;68459;50.836;19.138;2023-05-10T12:04:12;98702.06;;;20.47;35.68
74975;BME280;68459;50.836;19.138;2023-05-10T12:07:17;98701.19;;;20.51;35.63
74975;BME280;68459;50.836;19.138;2023-05-10T12:10:26;98715.22;;;20.79;35.59
74975;BME280;68459;50.836;19.138;2023-05-10T12:13:30;98698.69;;;20.89;34.85
74975;BME280;68459;50.836;19.138;2023-05-10T12:16:34;98704.19;;;20.55;35.14
74975;BME280;68459;50.836;19.138;2023-05-10T12:19:39;98709.00;;;20.68;35.07
74975;BME280;68459;50.836;19.138;2023-05-10T12:22:47;98714.19;;;20.98;34.22
74975;BME280;68459;50.836;19.138;2023-05-10T12:26:02;98708.44;;;21.29;33.55
74975;BME280;68459;50.836;19.138;2023-05-10T12:29:14;98708.28;;;20.86;33.93
74975;BME280;68459;50.836;19.138;2023-05-10T12:32:19;98709.88;;;20.63;34.35
74975;BME280;68459;50.836;19.138;2023-05-10T12:35:23;98700.03;;;20.62;34.66
74975;BME280;68459;50.836;19.138;2023-05-10T12:38:27;98704.72;;;20.86;34.55
74975;BME280;68459;50.836;19.138;2023-05-10T12:41:34;98704.25;;;20.79;34.44
74975;BME280;68459;50.836;19.138;2023-05-10T12:44:38;98688.53;;;21.13;33.87
74975;BME280;68459;50.836;19.138;2023-05-10T12:47:42;98693.75;;;21.39;33.85
74975;BME280;68459;50.836;19.138;2023-05-10T12:50:46;98693.13;;;22.08;33.19
74975;BME280;68459;50.836;19.138;2023-05-10T12:53:50;98693.28;;;22.49;32.12
74975;BME280;68459;50.836;19.138;2023-05-10T12:56:55;98691.53;;;22.21;32.79
74975;BME280;68459;50.836;19.138;2023-05-10T12:59:58;98673.53;;;25.01;30.92
74975;BME280;68459;50.836;19.138;2023-05-10T13:03:02;98686.41;;;28.26;26.92
74975;BME280;68459;50.836;19.138;2023-05-10T13:06:07;98691.97;;;29.50;25.07
74975;BME280;68459;50.836;19.138;2023-05-10T13:09:10;98693.47;;;29.59;24.64
74975;BME280;68459;50.836;19.138;2023-05-10T13:12:15;98683.59;;;30.38;24.97
74975;BME280;68459;50.836;19.138;2023-05-10T13:15:19;98685.22;;;29.99;24.22
74975;BME280;68459;50.836;19.138;2023-05-10T13:18:23;98671.88;;;29.07;25.79
74975;BME280;68459;50.836;19.138;2023-05-10T13:21:28;98679.19;;;32.42;24.23
74975;BME280;68459;50.836;19.138;2023-05-10T13:24:32;98684.88;;;35.43;20.75
74975;BME280;68459;50.836;19.138;2023-05-10T13:27:37;98689.06;;;37.58;19.58
74975;BME280;68459;50.836;19.138;2023-05-10T13:30:41;98691.78;;;39.16;17.97
74975;BME280;68459;50.836;19.138;2023-05-10T13:33:44;98696.56;;;40.19;17.15
74975;BME280;68459;50.836;19.138;2023-05-10T13:36:48;98674.16;;;41.50;16.16
74975;BME280;68459;50.836;19.138;2023-05-10T13:39:51;98676.06;;;42.23;16.15
74975;BME280;68459;50.836;19.138;2023-05-10T13:42:57;98670.44;;;38.31;17.87
74975;BME280;68459;50.836;19.138;2023-05-10T13:46:00;98647.22;;;34.62;20.39
74975;BME280;68459;50.836;19.138;2023-05-10T13:49:04;98651.38;;;34.12;21.73
74975;BME280;68459;50.836;19.138;2023-05-10T13:52:08;98652.69;;;36.53;19.75
74975;BME280;68459;50.836;19.138;2023-05-10T13:59:31;98652.53;;;40.52;16.38
74975;BME280;68459;50.836;19.138;2023-05-10T14:02:35;98653.91;;;41.28;15.56
74975;BME280;68459;50.836;19.138;2023-05-10T14:05:38;98657.06;;;41.80;15.51
74975;BME280;68459;50.836;19.138;2023-05-10T14:08:42;98654.41;;;42.32;14.95
74975;BME280;68459;50.836;19.138;2023-05-10T14:11:46;98654.16;;;42.47;14.67
74975;BME280;68459;50.836;19.138;2023-05-10T14:14:51;98648.28;;;42.74;14.60
74975;BME280;68459;50.836;19.138;2023-05-10T14:17:55;98649.31;;;42.99;14.07
74975;BME280;68459;50.836;19.138;2023-05-10T14:20:58;98644.84;;;42.62;14.67
74975;BME280;68459;50.836;19.138;2023-05-10T14:24:02;98631.47;;;42.63;14.48
74975;BME280;68459;50.836;19.138;2023-05-10T14:27:06;98644.47;;;42.44;13.97
74975;BME280;68459;50.836;19.138;2023-05-10T14:30:12;98633.97;;;42.61;13.58
74975;BME280;68459;50.836;19.138;2023-05-10T14:33:16;98624.38;;;42.55;14.06
74975;BME280;68459;50.836;19.138;2023-05-10T14:36:21;98634.84;;;42.38;14.03
74975;BME280;68459;50.836;19.138;2023-05-10T14:39:24;98634.84;;;42.38;13.98
74975;BME280;68459;50.836;19.138;2023-05-10T14:42:31;98629.59;;;42.92;13.81
74975;BME280;68459;50.836;19.138;2023-05-10T14:45:36;98634.75;;;42.81;13.65
74975;BME280;68459;50.836;19.138;2023-05-10T14:48:40;98626.69;;;42.96;13.57
74975;BME280;68459;50.836;19.138;2023-05-10T14:51:43;98636.13;;;42.73;13.35
74975;BME280;68459;50.836;19.138;2023-05-10T14:55:07;98626.06;;;42.32;12.46
74975;BME280;68459;50.836;19.138;2023-05-10T14:58:11;98621.72;;;41.65;13.92
74975;BME280;68459;50.836;19.138;2023-05-10T15:01:16;98609.13;;;40.92;13.51
74975;BME280;68459;50.836;19.138;2023-05-10T15:04:21;98612.38;;;38.55;14.89
74975;BME280;68459;50.836;19.138;2023-05-10T15:07:28;98620.00;;;38.58;15.13
74975;BME280;68459;50.836;19.138;2023-05-10T15:10:33;98611.94;;;39.19;14.29
74975;BME280;68459;50.836;19.138;2023-05-10T15:13:37;98620.06;;;39.99;14.16
74975;BME280;68459;50.836;19.138;2023-05-10T15:16:41;98616.78;;;40.65;13.98
74975;BME280;68459;50.836;19.138;2023-05-10T15:19:45;98615.75;;;40.52;14.05
74975;BME280;68459;50.836;19.138;2023-05-10T15:22:49;98611.34;;;40.51;13.44
74975;BME280;68459;50.836;19.138;2023-05-10T15:25:52;98616.75;;;40.38;13.92
74975;BME280;68459;50.836;19.138;2023-05-10T15:28:57;98613.56;;;40.02;13.97
74975;BME280;68459;50.836;19.138;2023-05-10T15:32:03;98612.91;;;39.91;14.04
74975;BME280;68459;50.836;19.138;2023-05-10T15:35:07;98616.22;;;39.79;14.12
74975;BME280;68459;50.836;19.138;2023-05-10T15:38:12;98612.72;;;39.68;14.04
74975;BME280;68459;50.836;19.138;2023-05-10T15:41:16;98610.16;;;39.39;14.63
74975;BME280;68459;50.836;19.138;2023-05-10T15:44:19;98608.72;;;39.17;14.54
74975;BME280;68459;50.836;19.138;2023-05-10T15:47:25;98608.47;;;38.94;14.80
74975;BME280;68459;50.836;19.138;2023-05-10T15:50:29;98605.91;;;38.62;14.98
74975;BME280;68459;50.836;19.138;2023-05-10T15:53:33;98608.34;;;38.56;14.50
74975;BME280;68459;50.836;19.138;2023-05-10T15:56:37;98608.56;;;37.89;14.58
74975;BME280;68459;50.836;19.138;2023-05-10T15:59:40;98597.78;;;37.44;14.99
74975;BME280;68459;50.836;19.138;2023-05-10T16:02:46;98602.63;;;37.40;14.63
74975;BME280;68459;50.836;19.138;2023-05-10T16:05:50;98596.59;;;37.38;15.13
74975;BME280;68459;50.836;19.138;2023-05-10T16:08:53;98595.38;;;37.54;14.80
74975;BME280;68459;50.836;19.138;2023-05-10T16:11:57;98599.78;;;36.98;15.21
74975;BME280;68459;50.836;19.138;2023-05-10T16:15:01;98604.81;;;36.25;15.65
74975;BME280;68459;50.836;19.138;2023-05-10T16:18:06;98604.44;;;36.30;15.98
74975;BME280;68459;50.836;19.138;2023-05-10T16:21:10;98606.34;;;36.08;15.46
74975;BME280;68459;50.836;19.138;2023-05-10T16:24:14;98602.31;;;35.40;15.85